Terminal Aerodrome Forecast
Issued by NWS

Home | Current Version | Previous Version | Text Only | Print | Product List | Glossary On
Versions: 1 2 3 4 5 6 7 8 9 10 11 12 13 14 15
628
FTUS45 KVEF 221725
TAFHND
TAF
KHND 221725Z 2218/2318 17015KT P6SM -RA SCT025 BKN030 OVC040
      TEMPO 2218/2221 P6SM RA BKN025
     FM222100 19015G25KT P6SM -RA SCT025 BKN030 OVC040
      TEMPO 2221/2301 P6SM RA BKN025
     FM230100 20015G25KT P6SM -RA SCT015 OVC030
     FM230800 22025G35KT P6SM -RA SCT020 OVC040
     FM231000 21028G38KT P6SM VCSH SCT030 BKN050=

USA.gov is the U.S. government's official web portal to all federal, state and local government web resources and services.